Delta Virtual Airport Information Service

Adak Airport

ICAO: PADK Country: United States
Latitude: 51.878 Longitude: -176.646
Latest Arrival : DAX1947 (PASY-PADK) Latest Departure : DAX1948 (PADK-PADU)


WX CaptureLIVE
Data provided by noaa.gov | Fetched at 07:14:16

METAR : PADK 271156Z AUTO 20010KT SCT021 03/01 A2982 RMK AO2 SLP097 T00330011 10050 20033 51008 PWINO $

TAF : PADK 271156Z AUTO 20010KT SCT021 03/01 A2982 RMK AO2 SLP097 T00330011 10050 20033 51008 PWINO $


Runway Data for PADK
Data provided by openaviationdata.com

Runway ID Mag Var Hdg Length Elevation Surface ILS Freq ILS Id ILS Slope
5 8 51° 7775 ft 18 ft Asphalt -- -- --
18 8 176° 7596 ft 18 ft Asphalt -- -- --
23 8 231° 7775 ft 18 ft Asphalt -- -- --
36 8 356° 7596 ft 18 ft Asphalt -- -- --

Adak Airport, United States
Use only for reference purposes



Not for navigational purposes.